sensor_id;sensor_type;location;lat;lon;timestamp;temperature;humidity
38866;DHT22;62686;48.984;8.394;2023-06-01T00:00:02;12.10;99.90
38866;DHT22;62686;48.984;8.394;2023-06-01T00:02:35;12.10;99.90
38866;DHT22;62686;48.984;8.394;2023-06-01T00:05:05;12.00;99.90
38866;DHT22;62686;48.984;8.394;2023-06-01T00:07:33;12.10;99.90
38866;DHT22;62686;48.984;8.394;2023-06-01T00:10:02;12.00;99.90
38866;DHT22;62686;48.984;8.394;2023-06-01T00:12:30;11.90;99.90
38866;DHT22;62686;48.984;8.394;2023-06-01T00:14:58;11.90;99.90
38866;DHT22;62686;48.984;8.394;2023-06-01T00:17:26;11.80;99.90
38866;DHT22;62686;48.984;8.394;2023-06-01T00:19:57;11.80;99.90
38866;DHT22;62686;48.984;8.394;2023-06-01T00:22:28;11.90;99.90
38866;DHT22;62686;48.984;8.394;2023-06-01T00:25:01;11.90;99.90
38866;DHT22;62686;48.984;8.394;2023-06-01T00:27:29;11.90;99.90
38866;DHT22;62686;48.984;8.394;2023-06-01T00:29:58;11.90;99.90
38866;DHT22;62686;48.984;8.394;2023-06-01T00:32:26;11.80;99.90
38866;DHT22;62686;48.984;8.394;2023-06-01T00:34:54;11.80;99.90
38866;DHT22;62686;48.984;8.394;2023-06-01T00:37:24;11.80;99.90
38866;DHT22;62686;48.984;8.394;2023-06-01T00:39:52;11.70;99.90
38866;DHT22;62686;48.984;8.394;2023-06-01T00:42:20;11.80;99.90
38866;DHT22;62686;48.984;8.394;2023-06-01T00:44:49;11.80;99.90
38866;DHT22;62686;48.984;8.394;2023-06-01T00:47:17;11.90;99.90
38866;DHT22;62686;48.984;8.394;2023-06-01T00:49:45;11.90;99.90
38866;DHT22;62686;48.984;8.394;2023-06-01T00:52:14;11.80;99.90
38866;DHT22;62686;48.984;8.394;2023-06-01T00:54:44;11.60;99.90
38866;DHT22;62686;48.984;8.394;2023-06-01T00:57:13;11.60;99.90
38866;DHT22;62686;48.984;8.394;2023-06-01T00:59:41;11.60;99.90
38866;DHT22;62686;48.984;8.394;2023-06-01T01:02:10;11.50;99.90
38866;DHT22;62686;48.984;8.394;2023-06-01T01:04:42;11.50;99.90
38866;DHT22;62686;48.984;8.394;2023-06-01T01:07:17;11.40;99.90
38866;DHT22;62686;48.984;8.394;2023-06-01T01:09:55;11.40;99.90
38866;DHT22;62686;48.984;8.394;2023-06-01T01:12:33;11.30;99.90
38866;DHT22;62686;48.984;8.394;2023-06-01T01:15:07;11.30;99.90
38866;DHT22;62686;48.984;8.394;2023-06-01T01:17:38;11.30;99.90
38866;DHT22;62686;48.984;8.394;2023-06-01T01:20:13;11.30;99.90
38866;DHT22;62686;48.984;8.394;2023-06-01T01:26:11;11.40;99.90
38866;DHT22;62686;48.984;8.394;2023-06-01T01:28:47;11.40;99.90
38866;DHT22;62686;48.984;8.394;2023-06-01T01:31:17;11.50;99.90
38866;DHT22;62686;48.984;8.394;2023-06-01T01:33:47;11.60;99.90
38866;DHT22;62686;48.984;8.394;2023-06-01T01:36:18;11.70;99.90
38866;DHT22;62686;48.984;8.394;2023-06-01T01:38:47;11.70;99.90
38866;DHT22;62686;48.984;8.394;2023-06-01T01:41:15;11.70;99.90
38866;DHT22;62686;48.984;8.394;2023-06-01T01:43:45;11.70;99.90
38866;DHT22;62686;48.984;8.394;2023-06-01T01:46:22;11.70;99.90
38866;DHT22;62686;48.984;8.394;2023-06-01T01:49:00;11.70;99.90
38866;DHT22;62686;48.984;8.394;2023-06-01T01:51:36;11.70;99.90
38866;DHT22;62686;48.984;8.394;2023-06-01T01:54:06;11.60;99.90
38866;DHT22;62686;48.984;8.394;2023-06-01T01:56:36;11.60;99.90
38866;DHT22;62686;48.984;8.394;2023-06-01T01:59:06;11.50;99.90
38866;DHT22;62686;48.984;8.394;2023-06-01T02:01:35;11.50;99.90
38866;DHT22;62686;48.984;8.394;2023-06-01T02:04:07;11.60;99.90
38866;DHT22;62686;48.984;8.394;2023-06-01T02:06:36;11.60;99.90
38866;DHT22;62686;48.984;8.394;2023-06-01T02:09:05;11.70;99.90
38866;DHT22;62686;48.984;8.394;2023-06-01T02:11:34;11.80;99.90
38866;DHT22;62686;48.984;8.394;2023-06-01T02:14:03;11.90;99.90
38866;DHT22;62686;48.984;8.394;2023-06-01T02:16:33;12.00;99.90
38866;DHT22;62686;48.984;8.394;2023-06-01T02:19:01;12.00;99.90
38866;DHT22;62686;48.984;8.394;2023-06-01T02:21:31;12.00;99.90
38866;DHT22;62686;48.984;8.394;2023-06-01T02:23:59;12.00;99.90
38866;DHT22;62686;48.984;8.394;2023-06-01T02:26:31;12.20;99.90
38866;DHT22;62686;48.984;8.394;2023-06-01T02:29:00;12.20;99.90
38866;DHT22;62686;48.984;8.394;2023-06-01T02:31:33;12.20;99.90
38866;DHT22;62686;48.984;8.394;2023-06-01T02:34:02;12.20;99.90
38866;DHT22;62686;48.984;8.394;2023-06-01T02:36:31;12.10;99.90
38866;DHT22;62686;48.984;8.394;2023-06-01T02:38:59;12.10;99.90
38866;DHT22;62686;48.984;8.394;2023-06-01T02:41:28;12.10;99.90
38866;DHT22;62686;48.984;8.394;2023-06-01T02:43:56;12.10;99.90
38866;DHT22;62686;48.984;8.394;2023-06-01T02:46:24;12.10;99.90
38866;DHT22;62686;48.984;8.394;2023-06-01T02:48:54;12.00;99.90
38866;DHT22;62686;48.984;8.394;2023-06-01T02:51:22;12.00;99.90
38866;DHT22;62686;48.984;8.394;2023-06-01T02:53:51;11.90;99.90
38866;DHT22;62686;48.984;8.394;2023-06-01T02:56:19;11.90;99.90
38866;DHT22;62686;48.984;8.394;2023-06-01T02:58:48;11.80;99.90
38866;DHT22;62686;48.984;8.394;2023-06-01T03:01:17;11.80;99.90
38866;DHT22;62686;48.984;8.394;2023-06-01T03:03:47;11.70;99.90
38866;DHT22;62686;48.984;8.394;2023-06-01T03:06:20;11.60;99.90
38866;DHT22;62686;48.984;8.394;2023-06-01T03:08:50;11.60;99.90
38866;DHT22;62686;48.984;8.394;2023-06-01T03:11:18;11.50;99.90
38866;DHT22;62686;48.984;8.394;2023-06-01T03:13:47;11.50;99.90
38866;DHT22;62686;48.984;8.394;2023-06-01T03:16:16;11.40;99.90
38866;DHT22;62686;48.984;8.394;2023-06-01T03:18:44;11.30;99.90
38866;DHT22;62686;48.984;8.394;2023-06-01T03:21:12;11.40;99.90
38866;DHT22;62686;48.984;8.394;2023-06-01T03:23:44;11.40;99.90
38866;DHT22;62686;48.984;8.394;2023-06-01T03:26:13;11.40;99.90
38866;DHT22;62686;48.984;8.394;2023-06-01T03:28:41;11.40;99.90
38866;DHT22;62686;48.984;8.394;2023-06-01T03:31:09;11.40;99.90
38866;DHT22;62686;48.984;8.394;2023-06-01T03:33:38;11.30;99.90
38866;DHT22;62686;48.984;8.394;2023-06-01T03:36:07;11.40;99.90
38866;DHT22;62686;48.984;8.394;2023-06-01T03:38:35;11.40;99.90
38866;DHT22;62686;48.984;8.394;2023-06-01T03:41:05;11.40;99.90
38866;DHT22;62686;48.984;8.394;2023-06-01T03:43:33;11.40;99.90
38866;DHT22;62686;48.984;8.394;2023-06-01T03:46:02;11.40;99.90
38866;DHT22;62686;48.984;8.394;2023-06-01T03:48:30;11.50;99.90
38866;DHT22;62686;48.984;8.394;2023-06-01T03:50:59;11.50;99.90
38866;DHT22;62686;48.984;8.394;2023-06-01T03:53:27;11.50;99.90
38866;DHT22;62686;48.984;8.394;2023-06-01T03:55:58;11.50;99.90
38866;DHT22;62686;48.984;8.394;2023-06-01T03:58:29;11.50;99.90
38866;DHT22;62686;48.984;8.394;2023-06-01T04:00:57;11.50;99.90
38866;DHT22;62686;48.984;8.394;2023-06-01T04:03:26;11.50;99.90
38866;DHT22;62686;48.984;8.394;2023-06-01T04:05:54;11.50;99.90
38866;DHT22;62686;48.984;8.394;2023-06-01T04:08:26;11.50;99.90
38866;DHT22;62686;48.984;8.394;2023-06-01T04:10:55;11.60;99.90
38866;DHT22;62686;48.984;8.394;2023-06-01T04:13:23;11.70;99.90
38866;DHT22;62686;48.984;8.394;2023-06-01T04:15:54;11.80;99.90
38866;DHT22;62686;48.984;8.394;2023-06-01T04:18:22;12.10;99.90
38866;DHT22;62686;48.984;8.394;2023-06-01T04:20:50;12.80;99.90
38866;DHT22;62686;48.984;8.394;2023-06-01T04:23:19;13.70;99.90
38866;DHT22;62686;48.984;8.394;2023-06-01T04:25:47;14.60;99.90
38866;DHT22;62686;48.984;8.394;2023-06-01T04:28:17;15.40;99.90
38866;DHT22;62686;48.984;8.394;2023-06-01T04:30:45;16.30;99.90
38866;DHT22;62686;48.984;8.394;2023-06-01T04:33:16;17.00;99.90
38866;DHT22;62686;48.984;8.394;2023-06-01T04:35:44;17.70;99.90
38866;DHT22;62686;48.984;8.394;2023-06-01T04:38:12;18.20;99.90
38866;DHT22;62686;48.984;8.394;2023-06-01T04:40:43;18.60;99.90
38866;DHT22;62686;48.984;8.394;2023-06-01T04:43:12;19.20;99.90
38866;DHT22;62686;48.984;8.394;2023-06-01T04:45:46;19.70;99.90
38866;DHT22;62686;48.984;8.394;2023-06-01T04:48:16;20.30;99.90
38866;DHT22;62686;48.984;8.394;2023-06-01T04:50:45;20.50;99.90
38866;DHT22;62686;48.984;8.394;2023-06-01T04:53:13;20.80;99.90
38866;DHT22;62686;48.984;8.394;2023-06-01T04:55:42;21.00;99.90
38866;DHT22;62686;48.984;8.394;2023-06-01T04:58:11;21.30;99.90
38866;DHT22;62686;48.984;8.394;2023-06-01T05:00:39;21.80;99.90
38866;DHT22;62686;48.984;8.394;2023-06-01T05:03:08;21.90;99.90
38866;DHT22;62686;48.984;8.394;2023-06-01T05:05:38;22.00;99.90
38866;DHT22;62686;48.984;8.394;2023-06-01T05:08:07;22.00;99.90
38866;DHT22;62686;48.984;8.394;2023-06-01T05:10:35;22.40;99.90
38866;DHT22;62686;48.984;8.394;2023-06-01T05:13:03;22.70;99.90
38866;DHT22;62686;48.984;8.394;2023-06-01T05:15:31;23.10;99.90
38866;DHT22;62686;48.984;8.394;2023-06-01T05:18:00;23.30;99.90
38866;DHT22;62686;48.984;8.394;2023-06-01T05:20:28;23.20;99.90
38866;DHT22;62686;48.984;8.394;2023-06-01T05:22:58;23.40;99.90
38866;DHT22;62686;48.984;8.394;2023-06-01T05:25:26;23.80;99.90
38866;DHT22;62686;48.984;8.394;2023-06-01T05:27:55;24.10;99.90
38866;DHT22;62686;48.984;8.394;2023-06-01T05:30:24;24.20;99.50
38866;DHT22;62686;48.984;8.394;2023-06-01T05:32:52;24.60;99.10
38866;DHT22;62686;48.984;8.394;2023-06-01T05:35:20;24.60;98.50
38866;DHT22;62686;48.984;8.394;2023-06-01T05:37:48;24.70;97.80
38866;DHT22;62686;48.984;8.394;2023-06-01T05:40:18;24.50;98.10
38866;DHT22;62686;48.984;8.394;2023-06-01T05:42:47;25.00;98.10
38866;DHT22;62686;48.984;8.394;2023-06-01T05:45:15;25.30;96.80
38866;DHT22;62686;48.984;8.394;2023-06-01T05:47:43;25.50;96.60
38866;DHT22;62686;48.984;8.394;2023-06-01T05:50:12;25.50;96.20
38866;DHT22;62686;48.984;8.394;2023-06-01T05:52:40;25.80;95.50
38866;DHT22;62686;48.984;8.394;2023-06-01T05:55:09;26.20;94.80
38866;DHT22;62686;48.984;8.394;2023-06-01T05:57:39;26.60;94.20
38866;DHT22;62686;48.984;8.394;2023-06-01T06:00:09;26.70;93.30
38866;DHT22;62686;48.984;8.394;2023-06-01T06:02:39;26.40;93.00
38866;DHT22;62686;48.984;8.394;2023-06-01T06:05:09;26.50;93.00
38866;DHT22;62686;48.984;8.394;2023-06-01T06:07:37;26.70;92.10
38866;DHT22;62686;48.984;8.394;2023-06-01T06:10:07;26.60;92.10
38866;DHT22;62686;48.984;8.394;2023-06-01T06:12:36;26.50;92.50
38866;DHT22;62686;48.984;8.394;2023-06-01T06:15:07;26.90;91.80
38866;DHT22;62686;48.984;8.394;2023-06-01T06:17:35;27.20;91.60
38866;DHT22;62686;48.984;8.394;2023-06-01T06:20:05;27.30;91.10
38866;DHT22;62686;48.984;8.394;2023-06-01T06:22:34;27.70;90.70
38866;DHT22;62686;48.984;8.394;2023-06-01T06:25:03;28.20;90.60
38866;DHT22;62686;48.984;8.394;2023-06-01T06:27:32;28.50;87.20
38866;DHT22;62686;48.984;8.394;2023-06-01T06:30:00;28.60;90.50
38866;DHT22;62686;48.984;8.394;2023-06-01T06:32:30;28.60;85.30
38866;DHT22;62686;48.984;8.394;2023-06-01T06:34:59;28.10;87.40
38866;DHT22;62686;48.984;8.394;2023-06-01T06:37:28;28.10;86.90
38866;DHT22;62686;48.984;8.394;2023-06-01T06:39:57;28.20;85.30
38866;DHT22;62686;48.984;8.394;2023-06-01T06:42:25;28.10;85.30
38866;DHT22;62686;48.984;8.394;2023-06-01T06:44:54;28.20;85.60
38866;DHT22;62686;48.984;8.394;2023-06-01T06:47:24;28.10;86.40
38866;DHT22;62686;48.984;8.394;2023-06-01T06:49:54;28.10;85.70
38866;DHT22;62686;48.984;8.394;2023-06-01T06:52:22;28.10;82.70
38866;DHT22;62686;48.984;8.394;2023-06-01T06:54:50;28.30;84.90
38866;DHT22;62686;48.984;8.394;2023-06-01T06:57:19;28.70;81.40
38866;DHT22;62686;48.984;8.394;2023-06-01T06:59:47;28.50;81.90
38866;DHT22;62686;48.984;8.394;2023-06-01T07:02:15;28.70;84.30
38866;DHT22;62686;48.984;8.394;2023-06-01T07:04:43;28.60;84.50
38866;DHT22;62686;48.984;8.394;2023-06-01T07:07:14;28.60;82.10
38866;DHT22;62686;48.984;8.394;2023-06-01T07:09:42;28.80;82.80
38866;DHT22;62686;48.984;8.394;2023-06-01T07:12:10;29.00;81.00
38866;DHT22;62686;48.984;8.394;2023-06-01T07:14:39;29.20;80.40
38866;DHT22;62686;48.984;8.394;2023-06-01T07:17:07;29.10;82.40
38866;DHT22;62686;48.984;8.394;2023-06-01T07:19:36;29.20;80.10
38866;DHT22;62686;48.984;8.394;2023-06-01T07:22:04;29.10;84.90
38866;DHT22;62686;48.984;8.394;2023-06-01T07:24:34;29.40;81.10
38866;DHT22;62686;48.984;8.394;2023-06-01T07:27:02;30.00;79.60
38866;DHT22;62686;48.984;8.394;2023-06-01T07:29:32;30.40;80.40
38866;DHT22;62686;48.984;8.394;2023-06-01T07:32:00;30.90;78.80
38866;DHT22;62686;48.984;8.394;2023-06-01T07:34:29;30.70;75.60
38866;DHT22;62686;48.984;8.394;2023-06-01T07:36:57;31.50;78.90
38866;DHT22;62686;48.984;8.394;2023-06-01T07:39:35;32.20;77.40
38866;DHT22;62686;48.984;8.394;2023-06-01T07:42:04;32.50;72.80
38866;DHT22;62686;48.984;8.394;2023-06-01T07:44:33;32.10;75.10
38866;DHT22;62686;48.984;8.394;2023-06-01T07:47:01;32.10;75.10
38866;DHT22;62686;48.984;8.394;2023-06-01T07:49:29;32.30;73.00
38866;DHT22;62686;48.984;8.394;2023-06-01T07:51:57;32.10;72.50
38866;DHT22;62686;48.984;8.394;2023-06-01T07:54:26;32.40;73.80
38866;DHT22;62686;48.984;8.394;2023-06-01T07:56:55;32.50;71.60
38866;DHT22;62686;48.984;8.394;2023-06-01T07:59:24;32.60;71.40
38866;DHT22;62686;48.984;8.394;2023-06-01T08:01:52;32.20;72.10
38866;DHT22;62686;48.984;8.394;2023-06-01T08:04:22;32.40;72.90
38866;DHT22;62686;48.984;8.394;2023-06-01T08:06:51;33.00;72.20
38866;DHT22;62686;48.984;8.394;2023-06-01T08:09:20;33.10;68.60
38866;DHT22;62686;48.984;8.394;2023-06-01T08:11:50;32.50;69.70
38866;DHT22;62686;48.984;8.394;2023-06-01T08:14:21;33.40;70.80
38866;DHT22;62686;48.984;8.394;2023-06-01T08:16:50;34.00;66.80
38866;DHT22;62686;48.984;8.394;2023-06-01T08:19:19;34.30;67.80
38866;DHT22;62686;48.984;8.394;2023-06-01T08:21:47;34.70;67.70
38866;DHT22;62686;48.984;8.394;2023-06-01T08:24:16;35.10;63.30
38866;DHT22;62686;48.984;8.394;2023-06-01T08:26:45;34.70;62.80
38866;DHT22;62686;48.984;8.394;2023-06-01T08:29:13;34.30;62.80
38866;DHT22;62686;48.984;8.394;2023-06-01T08:31:43;33.80;68.00
38866;DHT22;62686;48.984;8.394;2023-06-01T08:34:11;34.20;64.20
38866;DHT22;62686;48.984;8.394;2023-06-01T08:36:40;34.70;63.70
38866;DHT22;62686;48.984;8.394;2023-06-01T08:39:25;35.00;64.20
38866;DHT22;62686;48.984;8.394;2023-06-01T08:42:03;35.10;63.30
38866;DHT22;62686;48.984;8.394;2023-06-01T08:44:36;35.50;61.90
38866;DHT22;62686;48.984;8.394;2023-06-01T08:47:07;35.30;61.80
38866;DHT22;62686;48.984;8.394;2023-06-01T08:49:36;35.20;67.10
38866;DHT22;62686;48.984;8.394;2023-06-01T08:52:09;35.30;62.00
38866;DHT22;62686;48.984;8.394;2023-06-01T08:54:39;34.40;60.60
38866;DHT22;62686;48.984;8.394;2023-06-01T08:57:07;34.30;61.40
38866;DHT22;62686;48.984;8.394;2023-06-01T08:59:36;33.90;64.70
38866;DHT22;62686;48.984;8.394;2023-06-01T09:02:08;33.50;63.50
38866;DHT22;62686;48.984;8.394;2023-06-01T09:04:39;33.60;60.40
38866;DHT22;62686;48.984;8.394;2023-06-01T09:07:11;33.60;62.40
38866;DHT22;62686;48.984;8.394;2023-06-01T09:09:39;34.10;63.80
38866;DHT22;62686;48.984;8.394;2023-06-01T09:12:19;34.10;60.40
38866;DHT22;62686;48.984;8.394;2023-06-01T09:14:47;34.70;59.80
38866;DHT22;62686;48.984;8.394;2023-06-01T09:17:21;35.20;61.10
38866;DHT22;62686;48.984;8.394;2023-06-01T09:19:52;35.90;59.30
38866;DHT22;62686;48.984;8.394;2023-06-01T09:22:21;36.10;58.00
38866;DHT22;62686;48.984;8.394;2023-06-01T09:24:55;36.00;58.50
38866;DHT22;62686;48.984;8.394;2023-06-01T09:27:25;36.10;59.10
38866;DHT22;62686;48.984;8.394;2023-06-01T09:29:54;36.20;57.20
38866;DHT22;62686;48.984;8.394;2023-06-01T09:32:24;35.50;57.30
38866;DHT22;62686;48.984;8.394;2023-06-01T09:34:52;35.30;59.50
38866;DHT22;62686;48.984;8.394;2023-06-01T09:37:22;35.50;60.40
38866;DHT22;62686;48.984;8.394;2023-06-01T09:39:50;35.50;56.30
38866;DHT22;62686;48.984;8.394;2023-06-01T09:42:30;35.60;57.30
38866;DHT22;62686;48.984;8.394;2023-06-01T09:45:14;35.00;58.70
38866;DHT22;62686;48.984;8.394;2023-06-01T09:47:47;33.20;64.50
38866;DHT22;62686;48.984;8.394;2023-06-01T09:50:42;33.80;64.60
38866;DHT22;62686;48.984;8.394;2023-06-01T09:53:10;34.30;63.70
38866;DHT22;62686;48.984;8.394;2023-06-01T09:55:59;33.70;60.10
38866;DHT22;62686;48.984;8.394;2023-06-01T09:58:28;33.20;62.90
38866;DHT22;62686;48.984;8.394;2023-06-01T10:00:59;34.40;64.40
38866;DHT22;62686;48.984;8.394;2023-06-01T10:03:29;34.70;58.60
38866;DHT22;62686;48.984;8.394;2023-06-01T10:05:57;34.20;59.80
38866;DHT22;62686;48.984;8.394;2023-06-01T10:08:27;35.00;59.40
38866;DHT22;62686;48.984;8.394;2023-06-01T10:10:55;35.60;60.50
38866;DHT22;62686;48.984;8.394;2023-06-01T10:13:24;36.00;59.30
38866;DHT22;62686;48.984;8.394;2023-06-01T10:15:53;36.10;57.80
38866;DHT22;62686;48.984;8.394;2023-06-01T10:18:22;35.20;59.50
38866;DHT22;62686;48.984;8.394;2023-06-01T10:20:52;35.10;59.80
38866;DHT22;62686;48.984;8.394;2023-06-01T10:23:21;34.90;60.50
38866;DHT22;62686;48.984;8.394;2023-06-01T10:25:56;34.60;60.30
38866;DHT22;62686;48.984;8.394;2023-06-01T10:28:26;34.00;61.00
38866;DHT22;62686;48.984;8.394;2023-06-01T10:31:35;32.90;59.10
38866;DHT22;62686;48.984;8.394;2023-06-01T10:34:13;32.20;61.80
38866;DHT22;62686;48.984;8.394;2023-06-01T10:37:16;30.90;62.60
38866;DHT22;62686;48.984;8.394;2023-06-01T10:39:45;30.70;63.80
38866;DHT22;62686;48.984;8.394;2023-06-01T10:42:36;30.00;66.00
38866;DHT22;62686;48.984;8.394;2023-06-01T10:47:55;29.10;68.40
38866;DHT22;62686;48.984;8.394;2023-06-01T10:50:24;28.80;69.70
38866;DHT22;62686;48.984;8.394;2023-06-01T10:52:55;28.50;70.20
38866;DHT22;62686;48.984;8.394;2023-06-01T10:55:25;28.40;74.00
38866;DHT22;62686;48.984;8.394;2023-06-01T11:00:58;28.40;72.10
38866;DHT22;62686;48.984;8.394;2023-06-01T11:03:45;28.30;64.40
38866;DHT22;62686;48.984;8.394;2023-06-01T11:06:32;28.30;65.70
38866;DHT22;62686;48.984;8.394;2023-06-01T11:09:03;28.40;63.70
38866;DHT22;62686;48.984;8.394;2023-06-01T11:11:58;29.00;70.20
38866;DHT22;62686;48.984;8.394;2023-06-01T11:14:27;30.30;68.90
38866;DHT22;62686;48.984;8.394;2023-06-01T11:17:25;31.10;63.50
38866;DHT22;62686;48.984;8.394;2023-06-01T11:19:59;32.20;59.20
38866;DHT22;62686;48.984;8.394;2023-06-01T11:22:38;33.10;57.60
38866;DHT22;62686;48.984;8.394;2023-06-01T11:25:11;34.20;59.00
38866;DHT22;62686;48.984;8.394;2023-06-01T11:27:44;34.80;58.70
38866;DHT22;62686;48.984;8.394;2023-06-01T11:30:19;35.30;54.10
38866;DHT22;62686;48.984;8.394;2023-06-01T11:32:51;35.90;51.90
38866;DHT22;62686;48.984;8.394;2023-06-01T11:35:21;36.20;52.40
38866;DHT22;62686;48.984;8.394;2023-06-01T11:37:54;36.00;48.50
38866;DHT22;62686;48.984;8.394;2023-06-01T11:40:25;35.80;50.40
38866;DHT22;62686;48.984;8.394;2023-06-01T11:42:55;35.40;51.90
38866;DHT22;62686;48.984;8.394;2023-06-01T11:45:23;35.10;50.90
38866;DHT22;62686;48.984;8.394;2023-06-01T11:47:53;35.80;52.10
38866;DHT22;62686;48.984;8.394;2023-06-01T11:50:22;36.50;53.60
38866;DHT22;62686;48.984;8.394;2023-06-01T11:52:54;36.90;49.30
38866;DHT22;62686;48.984;8.394;2023-06-01T11:55:25;37.30;50.30
38866;DHT22;62686;48.984;8.394;2023-06-01T11:57:54;38.00;50.70
38866;DHT22;62686;48.984;8.394;2023-06-01T12:00:22;38.10;50.20
38866;DHT22;62686;48.984;8.394;2023-06-01T12:03:05;38.40;50.10
38866;DHT22;62686;48.984;8.394;2023-06-01T12:05:38;37.90;50.50
38866;DHT22;62686;48.984;8.394;2023-06-01T12:08:08;38.20;52.10
38866;DHT22;62686;48.984;8.394;2023-06-01T12:10:37;38.10;49.50
38866;DHT22;62686;48.984;8.394;2023-06-01T12:13:06;37.40;46.30
38866;DHT22;62686;48.984;8.394;2023-06-01T12:15:34;36.70;48.50
38866;DHT22;62686;48.984;8.394;2023-06-01T12:18:03;36.30;48.30
38866;DHT22;62686;48.984;8.394;2023-06-01T12:20:32;36.10;49.10
38866;DHT22;62686;48.984;8.394;2023-06-01T12:23:12;36.30;48.80
38866;DHT22;62686;48.984;8.394;2023-06-01T12:25:50;35.60;50.50
38866;DHT22;62686;48.984;8.394;2023-06-01T12:28:19;35.90;49.30
38866;DHT22;62686;48.984;8.394;2023-06-01T12:30:48;36.10;48.20
38866;DHT22;62686;48.984;8.394;2023-06-01T12:33:33;36.20;52.00
38866;DHT22;62686;48.984;8.394;2023-06-01T12:36:02;35.90;50.80
38866;DHT22;62686;48.984;8.394;2023-06-01T12:38:34;36.40;47.80
38866;DHT22;62686;48.984;8.394;2023-06-01T12:41:10;37.00;48.00
38866;DHT22;62686;48.984;8.394;2023-06-01T12:43:43;37.00;49.40
38866;DHT22;62686;48.984;8.394;2023-06-01T12:46:17;37.30;48.60
38866;DHT22;62686;48.984;8.394;2023-06-01T12:48:47;37.60;46.90
38866;DHT22;62686;48.984;8.394;2023-06-01T12:51:16;36.90;48.00
38866;DHT22;62686;48.984;8.394;2023-06-01T12:53:45;36.80;48.00
38866;DHT22;62686;48.984;8.394;2023-06-01T12:56:15;36.80;48.30
38866;DHT22;62686;48.984;8.394;2023-06-01T12:58:43;36.70;48.60
38866;DHT22;62686;48.984;8.394;2023-06-01T13:01:11;37.10;49.40
38866;DHT22;62686;48.984;8.394;2023-06-01T13:03:40;37.10;46.90
38866;DHT22;62686;48.984;8.394;2023-06-01T13:06:08;36.80;47.10
38866;DHT22;62686;48.984;8.394;2023-06-01T13:08:37;36.70;46.80
38866;DHT22;62686;48.984;8.394;2023-06-01T13:11:06;36.80;48.10
38866;DHT22;62686;48.984;8.394;2023-06-01T13:13:36;37.30;46.90
38866;DHT22;62686;48.984;8.394;2023-06-01T13:16:05;36.90;47.90
38866;DHT22;62686;48.984;8.394;2023-06-01T13:18:34;36.40;48.90
38866;DHT22;62686;48.984;8.394;2023-06-01T13:21:03;36.40;50.40
38866;DHT22;62686;48.984;8.394;2023-06-01T13:23:32;36.20;47.30
38866;DHT22;62686;48.984;8.394;2023-06-01T13:26:00;36.00;48.90
38866;DHT22;62686;48.984;8.394;2023-06-01T13:28:29;36.90;49.80
38866;DHT22;62686;48.984;8.394;2023-06-01T13:30:59;37.50;48.90
38866;DHT22;62686;48.984;8.394;2023-06-01T13:33:28;37.50;47.90
38866;DHT22;62686;48.984;8.394;2023-06-01T13:35:56;37.10;46.50
38866;DHT22;62686;48.984;8.394;2023-06-01T13:38:25;36.50;47.90
38866;DHT22;62686;48.984;8.394;2023-06-01T13:40:53;36.20;48.20
38866;DHT22;62686;48.984;8.394;2023-06-01T13:43:22;35.80;48.70
38866;DHT22;62686;48.984;8.394;2023-06-01T13:45:50;36.10;48.70
38866;DHT22;62686;48.984;8.394;2023-06-01T13:48:20;36.60;48.80
38866;DHT22;62686;48.984;8.394;2023-06-01T13:50:49;36.50;48.10
38866;DHT22;62686;48.984;8.394;2023-06-01T13:53:18;36.70;47.50
38866;DHT22;62686;48.984;8.394;2023-06-01T13:55:47;37.50;49.40
38866;DHT22;62686;48.984;8.394;2023-06-01T13:58:15;37.30;46.60
38866;DHT22;62686;48.984;8.394;2023-06-01T14:00:43;36.70;49.20
38866;DHT22;62686;48.984;8.394;2023-06-01T14:03:12;36.40;48.70
38866;DHT22;62686;48.984;8.394;2023-06-01T14:05:42;36.70;47.40
38866;DHT22;62686;48.984;8.394;2023-06-01T14:08:16;37.10;49.10
38866;DHT22;62686;48.984;8.394;2023-06-01T14:10:44;37.10;46.90
38866;DHT22;62686;48.984;8.394;2023-06-01T14:13:13;37.40;45.50
38866;DHT22;62686;48.984;8.394;2023-06-01T14:15:41;37.80;48.90
38866;DHT22;62686;48.984;8.394;2023-06-01T14:18:09;38.10;45.70
38866;DHT22;62686;48.984;8.394;2023-06-01T14:20:38;37.90;49.00
38866;DHT22;62686;48.984;8.394;2023-06-01T14:23:08;37.00;48.40
38866;DHT22;62686;48.984;8.394;2023-06-01T14:25:38;36.30;52.60
38866;DHT22;62686;48.984;8.394;2023-06-01T14:28:07;36.10;51.00
38866;DHT22;62686;48.984;8.394;2023-06-01T14:30:35;35.80;51.00
38866;DHT22;62686;48.984;8.394;2023-06-01T14:33:03;35.90;52.10
38866;DHT22;62686;48.984;8.394;2023-06-01T14:35:32;36.60;49.30
38866;DHT22;62686;48.984;8.394;2023-06-01T14:38:00;37.10;49.70
38866;DHT22;62686;48.984;8.394;2023-06-01T14:40:30;36.40;47.20
38866;DHT22;62686;48.984;8.394;2023-06-01T14:42:58;36.70;49.90
38866;DHT22;62686;48.984;8.394;2023-06-01T14:45:26;36.60;50.50
38866;DHT22;62686;48.984;8.394;2023-06-01T14:47:55;35.90;49.50
38866;DHT22;62686;48.984;8.394;2023-06-01T14:50:23;35.80;50.60
38866;DHT22;62686;48.984;8.394;2023-06-01T14:52:51;35.60;50.20
38866;DHT22;62686;48.984;8.394;2023-06-01T14:55:24;35.40;51.40
38866;DHT22;62686;48.984;8.394;2023-06-01T14:57:54;35.80;51.40
38866;DHT22;62686;48.984;8.394;2023-06-01T15:00:22;35.70;51.00
38866;DHT22;62686;48.984;8.394;2023-06-01T15:02:51;35.40;52.80
38866;DHT22;62686;48.984;8.394;2023-06-01T15:05:19;35.40;50.20
38866;DHT22;62686;48.984;8.394;2023-06-01T15:07:48;35.60;52.10
38866;DHT22;62686;48.984;8.394;2023-06-01T15:10:16;35.50;50.90
38866;DHT22;62686;48.984;8.394;2023-06-01T15:12:44;35.50;50.00
38866;DHT22;62686;48.984;8.394;2023-06-01T15:15:14;35.30;51.00
38866;DHT22;62686;48.984;8.394;2023-06-01T15:17:42;35.00;51.90
38866;DHT22;62686;48.984;8.394;2023-06-01T15:20:13;34.80;51.80
38866;DHT22;62686;48.984;8.394;2023-06-01T15:22:42;35.10;52.30
38866;DHT22;62686;48.984;8.394;2023-06-01T15:25:10;34.70;50.80
38866;DHT22;62686;48.984;8.394;2023-06-01T15:27:38;34.30;51.90
38866;DHT22;62686;48.984;8.394;2023-06-01T15:30:07;34.40;51.00
38866;DHT22;62686;48.984;8.394;2023-06-01T15:32:38;34.10;50.40
38866;DHT22;62686;48.984;8.394;2023-06-01T15:35:07;34.20;51.90
38866;DHT22;62686;48.984;8.394;2023-06-01T15:37:36;33.90;51.60
38866;DHT22;62686;48.984;8.394;2023-06-01T15:40:12;33.30;53.00
38866;DHT22;62686;48.984;8.394;2023-06-01T15:42:40;33.00;53.00
38866;DHT22;62686;48.984;8.394;2023-06-01T15:45:09;32.60;52.90
38866;DHT22;62686;48.984;8.394;2023-06-01T15:47:39;32.20;53.70
38866;DHT22;62686;48.984;8.394;2023-06-01T15:50:08;32.00;54.30
38866;DHT22;62686;48.984;8.394;2023-06-01T15:52:36;31.80;53.60
38866;DHT22;62686;48.984;8.394;2023-06-01T15:55:05;32.20;54.40
38866;DHT22;62686;48.984;8.394;2023-06-01T15:57:34;32.40;52.30